createdAt,value
2019-04-03T00:01:46.056Z,9.33
2019-04-03T00:04:19.735Z,9.39
2019-04-03T00:06:53.450Z,9.57
2019-04-03T00:09:27.095Z,9.57
2019-04-03T00:12:00.827Z,9.56
2019-04-03T00:14:34.950Z,9.64
2019-04-03T00:17:08.519Z,9.78
2019-04-03T00:19:42.089Z,9.75
2019-04-03T00:22:15.708Z,9.75
2019-04-03T00:24:49.253Z,9.82
2019-04-03T00:27:23.225Z,9.79
2019-04-03T00:29:56.820Z,9.76
2019-04-03T00:32:30.516Z,9.78
2019-04-03T00:35:04.803Z,9.83
2019-04-03T00:37:38.436Z,9.88
2019-04-03T00:40:12.926Z,10.00
2019-04-03T00:42:46.872Z,9.95
2019-04-03T00:45:20.513Z,10.04
2019-04-03T00:47:55.695Z,10.06
2019-04-03T00:50:29.410Z,10.09
2019-04-03T00:53:03.827Z,10.11
2019-04-03T00:55:37.743Z,10.09
2019-04-03T00:58:37.300Z,10.26
2019-04-03T01:01:12.863Z,10.25
2019-04-03T01:03:46.500Z,10.30
2019-04-03T01:06:20.096Z,10.33
2019-04-03T01:08:53.633Z,10.35
2019-04-03T01:11:28.839Z,10.38
2019-04-03T01:14:02.745Z,10.33
2019-04-03T01:16:36.370Z,10.29
2019-04-03T01:19:10.021Z,10.25
2019-04-03T01:21:43.558Z,10.15
2019-04-03T01:24:17.141Z,9.97
2019-04-03T01:26:50.680Z,9.74
2019-04-03T01:29:24.331Z,9.53
2019-04-03T01:31:57.891Z,9.33
2019-04-03T01:34:31.614Z,9.24
2019-04-03T01:37:05.167Z,9.19
2019-04-03T01:39:38.755Z,9.30
2019-04-03T01:42:12.271Z,9.27
2019-04-03T01:44:45.856Z,9.26
2019-04-03T01:47:19.479Z,9.27
2019-04-03T01:49:53.011Z,9.27
2019-04-03T01:52:26.585Z,9.29
2019-04-03T01:55:03.405Z,9.30
2019-04-03T01:57:36.781Z,9.34
2019-04-03T02:00:11.976Z,9.35
2019-04-03T02:02:45.674Z,9.36
2019-04-03T02:05:19.262Z,9.35
2019-04-03T02:07:52.849Z,9.30
2019-04-03T02:10:27.583Z,9.36
2019-04-03T02:13:01.145Z,9.32
2019-04-03T02:15:34.674Z,9.31
2019-04-03T02:18:08.262Z,9.29
2019-04-03T02:20:41.931Z,9.25
2019-04-03T02:23:15.524Z,9.24
2019-04-03T02:25:49.105Z,9.18
2019-04-03T02:28:22.701Z,9.13
2019-04-03T02:30:56.231Z,9.07
2019-04-03T02:33:29.874Z,8.99
2019-04-03T02:36:03.700Z,8.96
2019-04-03T02:38:37.337Z,8.91
2019-04-03T02:41:11.267Z,8.88
2019-04-03T02:43:46.287Z,8.84
2019-04-03T02:46:20.370Z,8.83
2019-04-03T02:48:54.044Z,8.80
2019-04-03T02:51:27.637Z,8.79
2019-04-03T02:54:02.424Z,8.80
2019-04-03T02:56:37.150Z,8.78
2019-04-03T02:59:10.994Z,8.76
2019-04-03T03:01:44.818Z,8.76
2019-04-03T03:04:20.530Z,8.74
2019-04-03T03:06:53.804Z,8.74
2019-04-03T03:09:28.086Z,8.72
2019-04-03T03:12:03.073Z,8.65
2019-04-03T03:14:39.757Z,8.58
2019-04-03T03:17:14.456Z,8.52
2019-04-03T03:19:50.392Z,8.43
2019-04-03T03:22:24.711Z,8.46
2019-04-03T03:25:00.969Z,8.48
2019-04-03T03:27:36.034Z,8.46
2019-04-03T03:30:33.235Z,8.47
2019-04-03T03:32:47.113Z,8.44
2019-04-03T03:35:29.374Z,8.41
2019-04-03T03:37:57.367Z,8.36
2019-04-03T03:40:32.578Z,8.30
2019-04-03T03:43:06.782Z,8.26
2019-04-03T03:45:40.996Z,8.22
2019-04-03T03:48:14.800Z,8.20
2019-04-03T03:50:48.858Z,8.13
2019-04-03T03:53:23.390Z,8.13
2019-04-03T03:55:59.356Z,8.14
2019-04-03T03:58:32.462Z,8.15
2019-04-03T04:01:06.651Z,8.13
2019-04-03T04:03:41.955Z,8.09
2019-04-03T04:06:16.272Z,8.02
2019-04-03T04:08:52.642Z,8.01
2019-04-03T04:11:30.101Z,7.97
2019-04-03T04:14:01.699Z,8.04
2019-04-03T04:16:37.700Z,7.96
2019-04-03T04:19:12.166Z,7.91
2019-04-03T04:21:46.027Z,7.96
2019-04-03T04:24:20.321Z,7.93
2019-04-03T04:26:54.193Z,7.88
2019-04-03T04:29:27.945Z,7.83
2019-04-03T04:32:01.550Z,7.84
2019-04-03T04:34:35.157Z,7.86
2019-04-03T04:37:08.690Z,7.86
2019-04-03T04:39:42.689Z,7.85
2019-04-03T04:42:16.590Z,7.86
2019-04-03T04:44:50.222Z,7.87
2019-04-03T04:47:23.959Z,7.94
2019-04-03T04:49:57.645Z,8.02
2019-04-03T04:52:31.264Z,8.18
2019-04-03T04:55:05.490Z,8.04
2019-04-03T04:57:41.063Z,7.98
2019-04-03T05:04:57.507Z,7.92
2019-04-03T05:07:31.424Z,7.88
2019-04-03T05:10:05.929Z,7.86
2019-04-03T05:12:42.663Z,7.92
2019-04-03T05:15:15.651Z,8.05
2019-04-03T05:17:50.616Z,8.12
2019-04-03T05:20:24.420Z,8.13
2019-04-03T05:22:58.106Z,8.09
2019-04-03T05:25:31.699Z,8.13
2019-04-03T05:28:05.289Z,8.18
2019-04-03T05:30:38.922Z,8.21
2019-04-03T05:33:12.855Z,8.23
2019-04-03T05:35:46.654Z,8.30
2019-04-03T05:38:22.471Z,8.30
2019-04-03T05:40:56.470Z,8.33
2019-04-03T05:43:31.532Z,8.54
2019-04-03T05:46:05.640Z,8.56
2019-04-03T05:48:40.116Z,8.57
2019-04-03T05:51:13.772Z,8.57
2019-04-03T05:53:47.507Z,8.64
2019-04-03T05:56:21.123Z,8.64
2019-04-03T05:58:57.214Z,8.74
2019-04-03T06:01:30.144Z,8.74
2019-04-03T06:04:03.769Z,8.76
2019-04-03T06:06:37.429Z,8.75
2019-04-03T06:09:11.788Z,8.77
2019-04-03T06:11:45.585Z,8.68
2019-04-03T06:14:19.814Z,8.59
2019-04-03T06:16:56.170Z,8.57
2019-04-03T06:19:30.692Z,8.61
2019-04-03T06:22:04.518Z,8.63
2019-04-03T06:24:38.549Z,8.73
2019-04-03T06:27:12.891Z,8.87
2019-04-03T06:29:46.913Z,8.93
2019-04-03T06:32:20.525Z,8.95
2019-04-03T06:34:54.225Z,9.17
2019-04-03T06:37:27.872Z,9.34
2019-04-03T07:31:25.216Z,10.30
2019-04-03T07:34:01.770Z,10.31
2019-04-03T07:36:34.922Z,10.28
2019-04-03T07:39:11.166Z,10.33
2019-04-03T07:41:45.166Z,10.31
2019-04-03T07:44:18.930Z,10.36
2019-04-03T07:46:54.963Z,10.38
2019-04-03T07:49:28.042Z,10.32
2019-04-03T07:52:01.703Z,10.31
2019-04-03T07:54:35.691Z,10.32
2019-04-03T07:57:10.541Z,10.34
2019-04-03T07:59:44.320Z,10.39
2019-04-03T08:02:17.938Z,10.45
2019-04-03T08:04:51.947Z,10.55
2019-04-03T08:07:25.892Z,10.63
2019-04-03T08:09:59.608Z,10.62
2019-04-03T08:12:35.700Z,10.47
2019-04-03T08:15:12.646Z,10.41
2019-04-03T08:17:46.003Z,10.51
2019-04-03T08:20:20.555Z,10.47
2019-04-03T08:22:54.333Z,10.45
2019-04-03T08:25:27.959Z,10.53
2019-04-03T08:28:01.858Z,10.50
2019-04-03T08:30:37.065Z,10.38
2019-04-03T08:33:17.560Z,10.37
2019-04-03T08:35:47.395Z,10.37
2019-04-03T08:38:21.111Z,10.28
2019-04-03T08:40:54.854Z,10.43
2019-04-03T08:43:31.510Z,10.30
2019-04-03T08:46:03.987Z,10.49
2019-04-03T08:48:37.748Z,10.41
2019-04-03T08:56:25.186Z,10.40
2019-04-03T08:58:59.041Z,10.31
2019-04-03T09:01:34.447Z,10.34
2019-04-03T09:04:08.174Z,10.41
2019-04-03T09:06:41.872Z,10.45
2019-04-03T09:09:15.537Z,10.63
2019-04-03T09:11:49.790Z,10.50
2019-04-03T09:14:25.002Z,10.49
2019-04-03T09:16:58.836Z,10.59
2019-04-03T09:19:32.609Z,10.62
2019-04-03T09:22:06.343Z,10.76
2019-04-03T09:24:40.012Z,10.81
2019-04-03T09:27:13.940Z,10.79
2019-04-03T09:29:47.582Z,10.87
2019-04-03T09:32:22.715Z,10.83
2019-04-03T09:34:56.844Z,10.75
2019-04-03T09:37:30.836Z,10.78
2019-04-03T09:40:05.121Z,10.98
2019-04-03T09:42:38.740Z,10.91
2019-04-03T09:45:12.776Z,10.92
2019-04-03T09:47:46.766Z,10.87
2019-04-03T09:50:26.143Z,10.89
2019-04-03T09:53:02.299Z,10.76
2019-04-03T09:55:37.467Z,10.82
2019-04-03T09:58:11.027Z,10.79
2019-04-03T10:00:44.700Z,10.85
2019-04-03T10:03:18.447Z,11.02
2019-04-03T10:05:52.221Z,10.99
2019-04-03T10:08:26.220Z,10.93
2019-04-03T10:11:00.270Z,10.98
2019-04-03T10:13:34.057Z,11.00
2019-04-03T10:16:07.705Z,11.02
2019-04-03T10:18:42.472Z,11.11
2019-04-03T10:21:17.799Z,11.21
2019-04-03T10:23:52.383Z,11.23
2019-04-03T10:26:26.423Z,11.36
2019-04-03T10:29:00.556Z,11.56
2019-04-03T10:31:34.876Z,11.75
2019-04-03T10:34:08.544Z,11.67
2019-04-03T10:36:43.544Z,11.87
2019-04-03T10:39:20.814Z,11.98
2019-04-03T10:42:19.289Z,11.91
2019-04-03T10:44:54.449Z,12.01
2019-04-03T10:47:40.505Z,11.98
2019-04-03T10:50:23.030Z,11.94
2019-04-03T10:52:56.978Z,11.99
2019-04-03T10:55:30.767Z,12.34
2019-04-03T10:58:06.910Z,12.22
2019-04-03T11:00:39.909Z,12.31
2019-04-03T11:03:38.436Z,12.46
2019-04-03T11:06:16.098Z,12.83
2019-04-03T11:08:52.341Z,12.63
2019-04-03T11:11:29.657Z,12.52
2019-04-03T11:14:04.845Z,12.68
2019-04-03T11:16:39.496Z,12.59
2019-04-03T11:19:13.215Z,12.45
2019-04-03T11:21:47.027Z,12.56
2019-04-03T11:24:23.403Z,12.93
2019-04-03T11:26:58.587Z,12.46
2019-04-03T11:29:32.292Z,12.42
2019-04-03T11:32:08.524Z,12.67
2019-04-03T11:34:53.235Z,12.70
2019-04-03T11:37:27.244Z,12.70
2019-04-03T11:40:05.158Z,12.71
2019-04-03T11:42:40.174Z,12.99
2019-04-03T11:45:14.911Z,13.03
2019-04-03T11:47:48.831Z,13.03
2019-04-03T11:50:25.314Z,13.04
2019-04-03T11:53:02.099Z,13.08
2019-04-03T11:55:35.641Z,12.96
2019-04-03T11:58:09.468Z,12.95
2019-04-03T12:00:46.408Z,12.85
2019-04-03T12:03:20.210Z,12.88
2019-04-03T12:05:54.049Z,12.93
2019-04-03T12:08:28.913Z,12.91
2019-04-03T12:11:06.126Z,12.93
2019-04-03T12:13:39.301Z,12.72
2019-04-03T12:16:13.004Z,12.77
2019-04-03T12:18:47.324Z,12.82
2019-04-03T12:21:21.386Z,12.77
2019-04-03T12:24:05.960Z,12.65
2019-04-03T12:26:42.477Z,12.79
2019-04-03T12:29:15.815Z,12.78
2019-04-03T12:31:50.163Z,12.96
2019-04-03T12:34:23.957Z,12.74
2019-04-03T12:36:59.247Z,12.84
2019-04-03T14:34:29.266Z,15.13
2019-04-03T17:56:42.970Z,12.12
2019-04-03T17:59:18.403Z,11.95
2019-04-03T18:01:52.959Z,11.82
2019-04-03T18:04:26.693Z,11.86
2019-04-03T18:07:00.932Z,11.82
2019-04-03T18:09:41.945Z,11.77
2019-04-03T18:12:21.139Z,11.78
2019-04-03T18:14:53.661Z,11.64
2019-04-03T18:17:27.242Z,11.57
2019-04-03T18:20:00.941Z,11.55
2019-04-03T18:22:34.670Z,11.67
2019-04-03T18:25:10.563Z,11.63
2019-04-03T18:27:44.962Z,11.44
2019-04-03T18:30:20.840Z,11.53
2019-04-03T18:32:58.349Z,11.44
2019-04-03T18:35:33.675Z,11.19
2019-04-03T18:38:08.552Z,11.12
2019-04-03T18:40:45.642Z,10.87
2019-04-03T18:43:21.624Z,10.75
2019-04-03T18:46:00.004Z,10.75
2019-04-03T18:48:37.995Z,10.71
2019-04-03T18:51:11.953Z,10.57
2019-04-03T18:53:47.440Z,10.55
2019-04-03T18:56:21.807Z,10.54
2019-04-03T18:58:55.702Z,10.51
2019-04-03T19:01:32.305Z,10.45
2019-04-03T19:04:05.119Z,10.52
2019-04-03T19:06:40.437Z,10.48
2019-04-03T19:09:15.228Z,10.53
2019-04-03T19:11:51.336Z,10.57
2019-04-03T19:14:31.453Z,10.49
2019-04-03T19:17:06.297Z,10.39
2019-04-03T19:19:41.230Z,10.29
2019-04-03T19:22:16.322Z,10.31
2019-04-03T19:24:52.627Z,10.28
2019-04-03T19:27:28.933Z,10.15
2019-04-03T19:30:02.539Z,10.11
2019-04-03T19:32:36.269Z,9.98
2019-04-03T19:35:10.540Z,9.87
2019-04-03T19:37:45.252Z,9.92
2019-04-03T19:40:19.509Z,9.81
2019-04-03T19:42:53.363Z,9.75
2019-04-03T19:45:27.804Z,9.69
2019-04-03T19:48:06.085Z,9.80
2019-04-03T19:50:40.723Z,9.87
2019-04-03T19:53:20.781Z,9.79
2019-04-03T19:55:55.390Z,9.74
2019-04-03T19:58:30.735Z,9.70
2019-04-03T20:01:07.734Z,9.75
2019-04-03T20:03:41.051Z,9.70
2019-04-03T20:06:15.735Z,9.79
2019-04-03T20:08:49.580Z,9.70
2019-04-03T20:11:25.052Z,9.67
2019-04-03T20:13:58.746Z,9.80
2019-04-03T20:16:32.331Z,9.84
2019-04-03T20:19:06.099Z,9.92
2019-04-03T20:21:40.553Z,9.93
2019-04-03T20:24:14.285Z,9.81
2019-04-03T20:26:47.908Z,9.73
2019-04-03T20:29:21.665Z,9.72
2019-04-03T20:31:56.478Z,9.75
2019-04-03T20:34:30.536Z,9.81
2019-04-03T20:49:11.165Z,9.76
2019-04-03T20:51:48.360Z,9.87
2019-04-03T20:54:21.961Z,9.81
2019-04-03T20:56:58.175Z,9.85
2019-04-03T20:59:31.423Z,9.97
2019-04-03T21:02:08.053Z,10.03
2019-04-03T21:04:41.069Z,10.01
2019-04-03T21:07:15.403Z,10.01
2019-04-03T21:09:49.152Z,9.92
2019-04-03T21:12:22.902Z,9.88
2019-04-03T21:15:07.795Z,9.84
2019-04-03T21:17:33.227Z,9.82
2019-04-03T21:20:07.743Z,9.87
2019-04-03T21:22:41.494Z,9.96
2019-04-03T21:25:15.628Z,10.03
2019-04-03T21:27:49.719Z,10.04
2019-04-03T21:30:24.033Z,10.13
2019-04-03T21:32:59.873Z,10.26
2019-04-03T21:35:35.251Z,10.22
2019-04-03T21:38:10.949Z,10.22
2019-04-03T21:40:46.928Z,10.24
2019-04-03T21:43:21.083Z,10.44
2019-04-03T21:45:55.505Z,10.15
2019-04-03T21:48:29.125Z,9.88
2019-04-03T21:51:03.189Z,9.79
2019-04-03T21:53:37.623Z,9.62
2019-04-03T21:56:12.055Z,9.71
2019-04-03T21:58:46.174Z,9.58
2019-04-03T22:01:27.094Z,9.36
2019-04-03T22:04:01.123Z,9.08
2019-04-03T22:06:34.740Z,8.93
2019-04-03T22:09:12.327Z,8.38
2019-04-03T22:11:45.919Z,8.03
2019-04-03T22:14:19.847Z,7.87
2019-04-03T22:16:53.452Z,7.62
2019-04-03T22:19:28.171Z,7.46
2019-04-03T22:22:03.033Z,7.41
2019-04-03T22:24:37.810Z,7.21
2019-04-03T22:27:12.580Z,7.24
2019-04-03T22:29:46.229Z,7.18
2019-04-03T22:32:19.886Z,7.13
2019-04-03T22:34:53.878Z,7.19
2019-04-03T22:37:27.506Z,7.22
2019-04-03T22:40:01.065Z,7.05
2019-04-03T22:42:35.242Z,6.98
2019-04-03T22:45:09.106Z,6.97
2019-04-03T22:47:42.797Z,6.93
2019-04-03T22:50:16.534Z,6.74
2019-04-03T22:52:51.012Z,6.89
2019-04-03T22:55:24.622Z,6.97
2019-04-03T22:57:58.301Z,6.81
2019-04-03T23:00:31.996Z,6.60
2019-04-03T23:03:05.655Z,6.55
2019-04-03T23:05:39.568Z,6.42
2019-04-03T23:08:13.704Z,6.53
2019-04-03T23:10:47.830Z,6.56
2019-04-03T23:13:21.565Z,6.49
2019-04-03T23:15:55.208Z,6.54
2019-04-03T23:18:28.879Z,6.62
2019-04-03T23:21:02.550Z,6.55
2019-04-03T23:23:37.042Z,6.55
2019-04-03T23:26:10.806Z,6.51
2019-04-03T23:28:44.481Z,6.35
2019-04-03T23:31:18.164Z,6.49
2019-04-03T23:33:51.859Z,6.41
2019-04-03T23:36:26.176Z,6.32
2019-04-03T23:38:59.844Z,6.34
2019-04-03T23:41:36.349Z,6.22
2019-04-03T23:44:10.698Z,6.27
2019-04-03T23:46:45.616Z,6.17
2019-04-03T23:49:20.202Z,6.26
2019-04-03T23:51:54.532Z,6.09
2019-04-03T23:54:28.274Z,6.01
2019-04-03T23:57:02.451Z,5.98
2019-04-03T23:59:36.447Z,6.06
